sensor_id;sensor_type;location;lat;lon;timestamp;temperature;humidity
81842;DHT22;71284;50.918;7.092;2023-09-19T00:01:09;19.80;58.40
81842;DHT22;71284;50.918;7.092;2023-09-19T00:03:35;19.70;57.90
81842;DHT22;71284;50.918;7.092;2023-09-19T00:06:03;19.60;58.50
81842;DHT22;71284;50.918;7.092;2023-09-19T00:08:29;19.70;58.30
81842;DHT22;71284;50.918;7.092;2023-09-19T00:10:56;19.80;59.10
81842;DHT22;71284;50.918;7.092;2023-09-19T00:13:22;19.90;57.80
81842;DHT22;71284;50.918;7.092;2023-09-19T00:15:49;19.60;57.90
81842;DHT22;71284;50.918;7.092;2023-09-19T00:18:16;19.60;58.20
81842;DHT22;71284;50.918;7.092;2023-09-19T00:20:42;19.70;57.90
81842;DHT22;71284;50.918;7.092;2023-09-19T00:23:09;19.80;58.60
81842;DHT22;71284;50.918;7.092;2023-09-19T00:25:36;19.70;57.70
81842;DHT22;71284;50.918;7.092;2023-09-19T00:28:04;19.60;57.30
81842;DHT22;71284;50.918;7.092;2023-09-19T00:30:30;19.70;58.50
81842;DHT22;71284;50.918;7.092;2023-09-19T00:32:56;19.70;57.20
81842;DHT22;71284;50.918;7.092;2023-09-19T00:35:23;19.60;56.90
81842;DHT22;71284;50.918;7.092;2023-09-19T00:37:50;19.70;57.80
81842;DHT22;71284;50.918;7.092;2023-09-19T00:40:16;19.60;57.00
81842;DHT22;71284;50.918;7.092;2023-09-19T00:42:43;19.50;57.20
81842;DHT22;71284;50.918;7.092;2023-09-19T00:45:10;19.40;57.80
81842;DHT22;71284;50.918;7.092;2023-09-19T00:47:38;19.60;57.40
81842;DHT22;71284;50.918;7.092;2023-09-19T00:50:04;19.60;58.00
81842;DHT22;71284;50.918;7.092;2023-09-19T00:52:32;19.60;58.70
81842;DHT22;71284;50.918;7.092;2023-09-19T00:54:58;19.70;56.70
81842;DHT22;71284;50.918;7.092;2023-09-19T00:57:25;19.70;57.50
81842;DHT22;71284;50.918;7.092;2023-09-19T00:59:52;19.70;56.60
81842;DHT22;71284;50.918;7.092;2023-09-19T01:02:18;19.50;56.80
81842;DHT22;71284;50.918;7.092;2023-09-19T01:04:45;19.50;57.10
81842;DHT22;71284;50.918;7.092;2023-09-19T01:07:11;19.60;56.30
81842;DHT22;71284;50.918;7.092;2023-09-19T01:09:38;19.70;56.50
81842;DHT22;71284;50.918;7.092;2023-09-19T01:12:05;19.70;56.10
81842;DHT22;71284;50.918;7.092;2023-09-19T01:14:44;19.70;56.20
81842;DHT22;71284;50.918;7.092;2023-09-19T01:17:20;19.50;56.60
81842;DHT22;71284;50.918;7.092;2023-09-19T01:22:29;19.50;57.50
81842;DHT22;71284;50.918;7.092;2023-09-19T01:27:58;19.70;56.30
81842;DHT22;71284;50.918;7.092;2023-09-19T01:30:20;19.60;57.00
81842;DHT22;71284;50.918;7.092;2023-09-19T01:32:46;19.70;56.40
81842;DHT22;71284;50.918;7.092;2023-09-19T01:35:12;19.80;56.20
81842;DHT22;71284;50.918;7.092;2023-09-19T01:37:39;19.50;56.70
81842;DHT22;71284;50.918;7.092;2023-09-19T01:40:07;19.70;55.80
81842;DHT22;71284;50.918;7.092;2023-09-19T01:42:57;19.70;55.90
81842;DHT22;71284;50.918;7.092;2023-09-19T01:45:28;19.80;55.50
81842;DHT22;71284;50.918;7.092;2023-09-19T01:47:52;19.70;55.50
81842;DHT22;71284;50.918;7.092;2023-09-19T01:50:32;19.70;55.60
81842;DHT22;71284;50.918;7.092;2023-09-19T01:53:05;19.40;56.40
81842;DHT22;71284;50.918;7.092;2023-09-19T01:55:30;19.30;56.50
81842;DHT22;71284;50.918;7.092;2023-09-19T01:58:03;19.40;56.30
81842;DHT22;71284;50.918;7.092;2023-09-19T02:00:27;19.50;56.10
81842;DHT22;71284;50.918;7.092;2023-09-19T02:02:54;19.60;56.60
81842;DHT22;71284;50.918;7.092;2023-09-19T02:05:22;19.60;56.30
81842;DHT22;71284;50.918;7.092;2023-09-19T02:07:48;19.70;55.70
81842;DHT22;71284;50.918;7.092;2023-09-19T02:10:15;19.80;55.60
81842;DHT22;71284;50.918;7.092;2023-09-19T02:12:41;19.70;55.60
81842;DHT22;71284;50.918;7.092;2023-09-19T02:15:08;19.80;55.30
81842;DHT22;71284;50.918;7.092;2023-09-19T02:17:35;19.70;56.10
81842;DHT22;71284;50.918;7.092;2023-09-19T02:20:01;19.60;55.40
81842;DHT22;71284;50.918;7.092;2023-09-19T02:22:28;19.60;55.70
81842;DHT22;71284;50.918;7.092;2023-09-19T02:24:54;19.60;55.00
81842;DHT22;71284;50.918;7.092;2023-09-19T02:27:22;19.40;54.70
81842;DHT22;71284;50.918;7.092;2023-09-19T02:29:48;19.30;55.50
81842;DHT22;71284;50.918;7.092;2023-09-19T02:32:15;19.30;55.50
81842;DHT22;71284;50.918;7.092;2023-09-19T02:34:41;19.30;55.30
81842;DHT22;71284;50.918;7.092;2023-09-19T02:37:08;19.30;55.60
81842;DHT22;71284;50.918;7.092;2023-09-19T02:39:35;19.00;55.60
81842;DHT22;71284;50.918;7.092;2023-09-19T02:42:01;18.90;55.50
81842;DHT22;71284;50.918;7.092;2023-09-19T02:44:28;19.10;55.30
81842;DHT22;71284;50.918;7.092;2023-09-19T02:46:54;19.10;55.30
81842;DHT22;71284;50.918;7.092;2023-09-19T02:49:21;19.20;55.50
81842;DHT22;71284;50.918;7.092;2023-09-19T02:51:48;19.10;55.30
81842;DHT22;71284;50.918;7.092;2023-09-19T02:54:14;19.10;55.60
81842;DHT22;71284;50.918;7.092;2023-09-19T02:56:41;19.10;55.10
81842;DHT22;71284;50.918;7.092;2023-09-19T02:59:07;19.20;54.90
81842;DHT22;71284;50.918;7.092;2023-09-19T03:01:34;19.00;55.40
81842;DHT22;71284;50.918;7.092;2023-09-19T03:04:00;18.90;55.70
81842;DHT22;71284;50.918;7.092;2023-09-19T03:06:27;19.10;55.20
81842;DHT22;71284;50.918;7.092;2023-09-19T03:08:54;19.00;55.90
81842;DHT22;71284;50.918;7.092;2023-09-19T03:11:20;19.00;55.90
81842;DHT22;71284;50.918;7.092;2023-09-19T03:13:53;19.10;55.40
81842;DHT22;71284;50.918;7.092;2023-09-19T03:16:19;19.00;55.90
81842;DHT22;71284;50.918;7.092;2023-09-19T03:18:46;19.00;55.40
81842;DHT22;71284;50.918;7.092;2023-09-19T03:21:12;19.20;55.00
81842;DHT22;71284;50.918;7.092;2023-09-19T03:23:39;19.10;55.40
81842;DHT22;71284;50.918;7.092;2023-09-19T03:26:06;19.10;55.10
81842;DHT22;71284;50.918;7.092;2023-09-19T03:28:33;19.10;54.90
81842;DHT22;71284;50.918;7.092;2023-09-19T03:30:59;18.90;55.90
81842;DHT22;71284;50.918;7.092;2023-09-19T03:33:25;19.00;56.50
81842;DHT22;71284;50.918;7.092;2023-09-19T03:35:52;19.00;54.90
81842;DHT22;71284;50.918;7.092;2023-09-19T03:38:19;19.00;55.10
81842;DHT22;71284;50.918;7.092;2023-09-19T03:40:45;19.10;54.80
81842;DHT22;71284;50.918;7.092;2023-09-19T03:43:12;19.10;55.40
81842;DHT22;71284;50.918;7.092;2023-09-19T03:45:38;19.20;54.90
81842;DHT22;71284;50.918;7.092;2023-09-19T03:48:09;19.20;56.40
81842;DHT22;71284;50.918;7.092;2023-09-19T03:50:35;19.20;55.20
81842;DHT22;71284;50.918;7.092;2023-09-19T03:53:02;19.20;55.00
81842;DHT22;71284;50.918;7.092;2023-09-19T03:55:29;19.10;55.10
81842;DHT22;71284;50.918;7.092;2023-09-19T03:57:58;19.10;55.20
81842;DHT22;71284;50.918;7.092;2023-09-19T04:00:24;19.10;55.00
81842;DHT22;71284;50.918;7.092;2023-09-19T04:02:51;19.20;55.10
81842;DHT22;71284;50.918;7.092;2023-09-19T04:05:18;19.10;55.30
81842;DHT22;71284;50.918;7.092;2023-09-19T04:07:44;19.10;54.60
81842;DHT22;71284;50.918;7.092;2023-09-19T04:10:11;19.20;54.80
81842;DHT22;71284;50.918;7.092;2023-09-19T04:12:38;19.20;54.80
81842;DHT22;71284;50.918;7.092;2023-09-19T04:15:05;19.10;54.60
81842;DHT22;71284;50.918;7.092;2023-09-19T04:17:32;19.10;54.70
81842;DHT22;71284;50.918;7.092;2023-09-19T04:19:59;19.10;54.60
81842;DHT22;71284;50.918;7.092;2023-09-19T04:22:26;19.10;54.20
81842;DHT22;71284;50.918;7.092;2023-09-19T04:24:52;19.10;54.10
81842;DHT22;71284;50.918;7.092;2023-09-19T04:27:19;19.10;53.90
81842;DHT22;71284;50.918;7.092;2023-09-19T04:29:46;19.10;54.00
81842;DHT22;71284;50.918;7.092;2023-09-19T04:32:12;19.10;54.00
81842;DHT22;71284;50.918;7.092;2023-09-19T04:34:39;19.00;53.70
81842;DHT22;71284;50.918;7.092;2023-09-19T04:37:05;18.90;54.30
81842;DHT22;71284;50.918;7.092;2023-09-19T04:39:32;18.90;53.60
81842;DHT22;71284;50.918;7.092;2023-09-19T04:41:59;18.90;53.40
81842;DHT22;71284;50.918;7.092;2023-09-19T04:44:25;18.90;52.80
81842;DHT22;71284;50.918;7.092;2023-09-19T04:46:52;18.90;52.90
81842;DHT22;71284;50.918;7.092;2023-09-19T04:49:18;18.90;52.80
81842;DHT22;71284;50.918;7.092;2023-09-19T04:51:45;18.90;52.50
81842;DHT22;71284;50.918;7.092;2023-09-19T04:54:12;18.90;52.90
81842;DHT22;71284;50.918;7.092;2023-09-19T04:56:38;19.00;53.10
81842;DHT22;71284;50.918;7.092;2023-09-19T04:59:05;18.90;53.30
81842;DHT22;71284;50.918;7.092;2023-09-19T05:01:31;18.70;53.70
81842;DHT22;71284;50.918;7.092;2023-09-19T05:03:58;18.70;53.90
81842;DHT22;71284;50.918;7.092;2023-09-19T05:06:24;18.80;53.60
81842;DHT22;71284;50.918;7.092;2023-09-19T05:08:51;18.60;53.20
81842;DHT22;71284;50.918;7.092;2023-09-19T05:11:19;18.60;53.30
81842;DHT22;71284;50.918;7.092;2023-09-19T05:13:45;18.50;53.40
81842;DHT22;71284;50.918;7.092;2023-09-19T05:16:12;18.50;53.30
81842;DHT22;71284;50.918;7.092;2023-09-19T05:18:38;18.50;53.70
81842;DHT22;71284;50.918;7.092;2023-09-19T05:21:05;18.50;53.20
81842;DHT22;71284;50.918;7.092;2023-09-19T05:23:31;18.60;53.20
81842;DHT22;71284;50.918;7.092;2023-09-19T05:25:58;18.60;53.30
81842;DHT22;71284;50.918;7.092;2023-09-19T05:28:25;18.60;53.70
81842;DHT22;71284;50.918;7.092;2023-09-19T05:30:51;18.50;53.70
81842;DHT22;71284;50.918;7.092;2023-09-19T05:33:18;18.50;53.60
81842;DHT22;71284;50.918;7.092;2023-09-19T05:35:44;18.60;53.70
81842;DHT22;71284;50.918;7.092;2023-09-19T05:38:12;18.50;53.90
81842;DHT22;71284;50.918;7.092;2023-09-19T05:40:38;18.50;54.10
81842;DHT22;71284;50.918;7.092;2023-09-19T05:43:05;18.50;54.30
81842;DHT22;71284;50.918;7.092;2023-09-19T05:45:31;18.40;54.20
81842;DHT22;71284;50.918;7.092;2023-09-19T05:48:06;18.50;54.40
81842;DHT22;71284;50.918;7.092;2023-09-19T05:50:25;18.30;54.50
81842;DHT22;71284;50.918;7.092;2023-09-19T05:52:52;18.30;54.20
81842;DHT22;71284;50.918;7.092;2023-09-19T05:55:18;18.40;53.90
81842;DHT22;71284;50.918;7.092;2023-09-19T05:57:49;18.30;54.30
81842;DHT22;71284;50.918;7.092;2023-09-19T06:00:12;18.40;53.80
81842;DHT22;71284;50.918;7.092;2023-09-19T06:02:39;18.40;53.70
81842;DHT22;71284;50.918;7.092;2023-09-19T06:05:06;18.50;53.70
81842;DHT22;71284;50.918;7.092;2023-09-19T06:07:33;18.50;53.40
81842;DHT22;71284;50.918;7.092;2023-09-19T06:09:59;18.50;53.50
81842;DHT22;71284;50.918;7.092;2023-09-19T06:12:26;18.60;53.30
81842;DHT22;71284;50.918;7.092;2023-09-19T06:14:52;18.40;54.00
81842;DHT22;71284;50.918;7.092;2023-09-19T06:17:19;18.40;54.00
81842;DHT22;71284;50.918;7.092;2023-09-19T06:19:46;18.40;54.10
81842;DHT22;71284;50.918;7.092;2023-09-19T06:22:14;18.30;54.30
81842;DHT22;71284;50.918;7.092;2023-09-19T06:24:39;18.40;54.20
81842;DHT22;71284;50.918;7.092;2023-09-19T06:27:05;18.50;53.80
81842;DHT22;71284;50.918;7.092;2023-09-19T06:29:32;18.40;54.20
81842;DHT22;71284;50.918;7.092;2023-09-19T06:31:59;18.40;54.10
81842;DHT22;71284;50.918;7.092;2023-09-19T06:34:25;18.50;53.50
81842;DHT22;71284;50.918;7.092;2023-09-19T06:36:52;18.60;53.60
81842;DHT22;71284;50.918;7.092;2023-09-19T06:39:18;18.70;53.70
81842;DHT22;71284;50.918;7.092;2023-09-19T06:41:45;18.50;53.60
81842;DHT22;71284;50.918;7.092;2023-09-19T06:44:12;18.70;53.80
81842;DHT22;71284;50.918;7.092;2023-09-19T06:46:38;18.70;53.90
81842;DHT22;71284;50.918;7.092;2023-09-19T06:49:05;18.70;53.80
81842;DHT22;71284;50.918;7.092;2023-09-19T06:51:32;18.60;53.70
81842;DHT22;71284;50.918;7.092;2023-09-19T06:53:58;18.70;53.90
81842;DHT22;71284;50.918;7.092;2023-09-19T06:56:24;18.80;53.70
81842;DHT22;71284;50.918;7.092;2023-09-19T06:58:51;18.80;53.70
81842;DHT22;71284;50.918;7.092;2023-09-19T07:01:18;18.90;53.70
81842;DHT22;71284;50.918;7.092;2023-09-19T07:03:44;19.00;53.50
81842;DHT22;71284;50.918;7.092;2023-09-19T07:06:11;19.00;53.30
81842;DHT22;71284;50.918;7.092;2023-09-19T07:08:38;19.10;53.60
81842;DHT22;71284;50.918;7.092;2023-09-19T07:11:05;19.10;53.50
81842;DHT22;71284;50.918;7.092;2023-09-19T07:13:31;19.10;53.70
81842;DHT22;71284;50.918;7.092;2023-09-19T07:15:59;19.10;53.20
81842;DHT22;71284;50.918;7.092;2023-09-19T07:18:25;19.20;53.50
81842;DHT22;71284;50.918;7.092;2023-09-19T07:20:56;19.20;53.70
81842;DHT22;71284;50.918;7.092;2023-09-19T07:23:19;19.10;53.90
81842;DHT22;71284;50.918;7.092;2023-09-19T07:25:45;19.30;53.70
81842;DHT22;71284;50.918;7.092;2023-09-19T07:28:12;19.30;53.70
81842;DHT22;71284;50.918;7.092;2023-09-19T07:30:38;19.20;53.50
81842;DHT22;71284;50.918;7.092;2023-09-19T07:33:05;19.20;53.40
81842;DHT22;71284;50.918;7.092;2023-09-19T07:35:32;19.30;53.30
81842;DHT22;71284;50.918;7.092;2023-09-19T07:37:58;19.40;53.20
81842;DHT22;71284;50.918;7.092;2023-09-19T07:40:25;19.40;53.10
81842;DHT22;71284;50.918;7.092;2023-09-19T07:42:51;19.40;52.90
81842;DHT22;71284;50.918;7.092;2023-09-19T07:45:18;19.40;52.70
81842;DHT22;71284;50.918;7.092;2023-09-19T07:47:45;19.40;52.40
81842;DHT22;71284;50.918;7.092;2023-09-19T07:50:11;19.40;52.60
81842;DHT22;71284;50.918;7.092;2023-09-19T07:52:38;19.50;52.70
81842;DHT22;71284;50.918;7.092;2023-09-19T07:55:06;19.70;52.40
81842;DHT22;71284;50.918;7.092;2023-09-19T07:57:32;19.80;52.00
81842;DHT22;71284;50.918;7.092;2023-09-19T07:59:59;19.70;51.70
81842;DHT22;71284;50.918;7.092;2023-09-19T08:02:25;19.70;51.30
81842;DHT22;71284;50.918;7.092;2023-09-19T08:04:52;19.60;51.50
81842;DHT22;71284;50.918;7.092;2023-09-19T08:07:19;19.70;52.00
81842;DHT22;71284;50.918;7.092;2023-09-19T08:09:45;19.90;51.30
81842;DHT22;71284;50.918;7.092;2023-09-19T08:12:12;20.00;51.70
81842;DHT22;71284;50.918;7.092;2023-09-19T08:14:38;20.10;51.00
81842;DHT22;71284;50.918;7.092;2023-09-19T08:17:05;20.20;51.60
81842;DHT22;71284;50.918;7.092;2023-09-19T08:19:32;19.90;51.00
81842;DHT22;71284;50.918;7.092;2023-09-19T08:21:59;19.90;50.90
81842;DHT22;71284;50.918;7.092;2023-09-19T08:24:26;19.90;50.70
81842;DHT22;71284;50.918;7.092;2023-09-19T08:26:53;19.90;50.30
81842;DHT22;71284;50.918;7.092;2023-09-19T08:29:19;19.80;50.50
81842;DHT22;71284;50.918;7.092;2023-09-19T08:31:46;19.90;50.30
81842;DHT22;71284;50.918;7.092;2023-09-19T08:34:13;20.00;49.60
81842;DHT22;71284;50.918;7.092;2023-09-19T08:36:39;20.10;49.50
81842;DHT22;71284;50.918;7.092;2023-09-19T08:39:05;20.30;49.10
81842;DHT22;71284;50.918;7.092;2023-09-19T08:41:32;20.30;49.10
81842;DHT22;71284;50.918;7.092;2023-09-19T08:43:59;20.20;49.30
81842;DHT22;71284;50.918;7.092;2023-09-19T08:46:25;20.30;49.90
81842;DHT22;71284;50.918;7.092;2023-09-19T08:51:42;20.80;48.40
81842;DHT22;71284;50.918;7.092;2023-09-19T08:54:07;20.90;47.90
81842;DHT22;71284;50.918;7.092;2023-09-19T08:56:34;20.60;48.00
81842;DHT22;71284;50.918;7.092;2023-09-19T08:59:02;20.20;49.60
81842;DHT22;71284;50.918;7.092;2023-09-19T09:01:28;20.50;49.10
81842;DHT22;71284;50.918;7.092;2023-09-19T09:03:55;20.60;48.50
81842;DHT22;71284;50.918;7.092;2023-09-19T09:06:21;20.60;47.40
81842;DHT22;71284;50.918;7.092;2023-09-19T09:08:47;20.60;48.10
81842;DHT22;71284;50.918;7.092;2023-09-19T09:11:14;20.60;47.80
81842;DHT22;71284;50.918;7.092;2023-09-19T09:13:41;20.70;47.60
81842;DHT22;71284;50.918;7.092;2023-09-19T09:16:07;20.70;47.00
81842;DHT22;71284;50.918;7.092;2023-09-19T09:18:34;20.90;47.80
81842;DHT22;71284;50.918;7.092;2023-09-19T09:21:00;20.90;47.20
81842;DHT22;71284;50.918;7.092;2023-09-19T09:23:27;20.80;47.40
81842;DHT22;71284;50.918;7.092;2023-09-19T09:25:56;20.90;47.80
81842;DHT22;71284;50.918;7.092;2023-09-19T09:28:24;21.00;47.00
81842;DHT22;71284;50.918;7.092;2023-09-19T09:30:50;21.00;45.90
81842;DHT22;71284;50.918;7.092;2023-09-19T09:33:17;20.60;47.40
81842;DHT22;71284;50.918;7.092;2023-09-19T09:35:53;20.90;47.40
81842;DHT22;71284;50.918;7.092;2023-09-19T09:38:20;21.10;46.70
81842;DHT22;71284;50.918;7.092;2023-09-19T09:40:48;21.10;46.10
81842;DHT22;71284;50.918;7.092;2023-09-19T09:43:33;21.00;46.60
81842;DHT22;71284;50.918;7.092;2023-09-19T09:46:09;21.30;45.50
81842;DHT22;71284;50.918;7.092;2023-09-19T09:48:35;21.40;45.10
81842;DHT22;71284;50.918;7.092;2023-09-19T09:51:02;21.60;45.10
81842;DHT22;71284;50.918;7.092;2023-09-19T09:53:29;21.70;45.50
81842;DHT22;71284;50.918;7.092;2023-09-19T09:55:58;21.80;44.50
81842;DHT22;71284;50.918;7.092;2023-09-19T09:58:24;22.00;44.40
81842;DHT22;71284;50.918;7.092;2023-09-19T10:00:54;22.00;44.30
81842;DHT22;71284;50.918;7.092;2023-09-19T10:03:23;22.00;43.30
81842;DHT22;71284;50.918;7.092;2023-09-19T10:05:52;22.00;44.40
81842;DHT22;71284;50.918;7.092;2023-09-19T10:08:15;21.80;44.10
81842;DHT22;71284;50.918;7.092;2023-09-19T10:10:42;21.70;44.30
81842;DHT22;71284;50.918;7.092;2023-09-19T10:13:12;21.70;44.40
81842;DHT22;71284;50.918;7.092;2023-09-19T10:15:39;21.80;44.60
81842;DHT22;71284;50.918;7.092;2023-09-19T10:18:05;21.90;44.60
81842;DHT22;71284;50.918;7.092;2023-09-19T10:20:32;21.70;44.30
81842;DHT22;71284;50.918;7.092;2023-09-19T10:23:00;21.70;44.30
81842;DHT22;71284;50.918;7.092;2023-09-19T10:25:27;21.80;44.00
81842;DHT22;71284;50.918;7.092;2023-09-19T10:27:55;21.80;43.30
81842;DHT22;71284;50.918;7.092;2023-09-19T10:30:22;21.80;43.80
81842;DHT22;71284;50.918;7.092;2023-09-19T10:32:48;21.70;44.00
81842;DHT22;71284;50.918;7.092;2023-09-19T10:35:15;22.00;43.60
81842;DHT22;71284;50.918;7.092;2023-09-19T10:37:42;22.10;43.40
81842;DHT22;71284;50.918;7.092;2023-09-19T10:40:08;22.30;42.90
81842;DHT22;71284;50.918;7.092;2023-09-19T10:42:35;22.20;42.90
81842;DHT22;71284;50.918;7.092;2023-09-19T10:45:01;22.00;44.00
81842;DHT22;71284;50.918;7.092;2023-09-19T10:47:28;22.10;46.00
81842;DHT22;71284;50.918;7.092;2023-09-19T10:49:55;22.20;46.70
81842;DHT22;71284;50.918;7.092;2023-09-19T10:52:23;22.30;46.30
81842;DHT22;71284;50.918;7.092;2023-09-19T10:54:49;22.30;45.30
81842;DHT22;71284;50.918;7.092;2023-09-19T10:57:18;22.50;42.80
81842;DHT22;71284;50.918;7.092;2023-09-19T10:59:59;22.40;42.00
81842;DHT22;71284;50.918;7.092;2023-09-19T11:02:16;22.30;41.70
81842;DHT22;71284;50.918;7.092;2023-09-19T11:04:42;22.40;41.70
81842;DHT22;71284;50.918;7.092;2023-09-19T11:07:09;22.40;41.90
81842;DHT22;71284;50.918;7.092;2023-09-19T11:09:45;22.40;41.50
81842;DHT22;71284;50.918;7.092;2023-09-19T11:14:53;22.50;42.00
81842;DHT22;71284;50.918;7.092;2023-09-19T11:17:35;22.80;41.80
81842;DHT22;71284;50.918;7.092;2023-09-19T11:20:18;22.90;41.40
81842;DHT22;71284;50.918;7.092;2023-09-19T11:23:21;22.80;40.80
81842;DHT22;71284;50.918;7.092;2023-09-19T11:25:47;22.90;42.30
81842;DHT22;71284;50.918;7.092;2023-09-19T11:28:29;22.70;40.80
81842;DHT22;71284;50.918;7.092;2023-09-19T11:30:55;22.90;40.30
81842;DHT22;71284;50.918;7.092;2023-09-19T11:33:26;22.90;40.30
81842;DHT22;71284;50.918;7.092;2023-09-19T11:36:02;22.90;40.40
81842;DHT22;71284;50.918;7.092;2023-09-19T11:43:45;22.70;40.50
81842;DHT22;71284;50.918;7.092;2023-09-19T11:46:11;22.70;40.10
81842;DHT22;71284;50.918;7.092;2023-09-19T11:48:39;22.80;40.50
81842;DHT22;71284;50.918;7.092;2023-09-19T11:51:12;23.00;39.70
81842;DHT22;71284;50.918;7.092;2023-09-19T11:53:42;23.00;40.10
81842;DHT22;71284;50.918;7.092;2023-09-19T11:56:08;23.30;39.90
81842;DHT22;71284;50.918;7.092;2023-09-19T11:58:35;23.40;39.00
81842;DHT22;71284;50.918;7.092;2023-09-19T12:01:01;23.60;39.00
81842;DHT22;71284;50.918;7.092;2023-09-19T12:03:29;23.70;39.10
81842;DHT22;71284;50.918;7.092;2023-09-19T12:05:54;23.80;38.80
81842;DHT22;71284;50.918;7.092;2023-09-19T12:08:21;23.60;39.20
81842;DHT22;71284;50.918;7.092;2023-09-19T12:10:48;23.70;37.80
81842;DHT22;71284;50.918;7.092;2023-09-19T12:13:16;23.90;37.10
81842;DHT22;71284;50.918;7.092;2023-09-19T12:15:42;23.90;37.00
81842;DHT22;71284;50.918;7.092;2023-09-19T12:18:08;23.60;36.90
81842;DHT22;71284;50.918;7.092;2023-09-19T12:20:42;23.60;36.70
81842;DHT22;71284;50.918;7.092;2023-09-19T12:23:14;23.40;36.90
81842;DHT22;71284;50.918;7.092;2023-09-19T12:25:42;23.50;37.50
81842;DHT22;71284;50.918;7.092;2023-09-19T12:28:08;23.30;36.70
81842;DHT22;71284;50.918;7.092;2023-09-19T12:30:35;23.40;36.50
81842;DHT22;71284;50.918;7.092;2023-09-19T12:33:02;23.70;37.20
81842;DHT22;71284;50.918;7.092;2023-09-19T12:35:28;23.80;35.80
81842;DHT22;71284;50.918;7.092;2023-09-19T12:37:55;23.80;36.40
81842;DHT22;71284;50.918;7.092;2023-09-19T12:40:22;23.80;36.10
81842;DHT22;71284;50.918;7.092;2023-09-19T12:42:48;23.20;36.70
81842;DHT22;71284;50.918;7.092;2023-09-19T12:45:15;23.10;37.00
81842;DHT22;71284;50.918;7.092;2023-09-19T12:48:17;23.60;37.20
81842;DHT22;71284;50.918;7.092;2023-09-19T12:50:12;23.90;36.30
81842;DHT22;71284;50.918;7.092;2023-09-19T12:52:41;24.10;37.30
81842;DHT22;71284;50.918;7.092;2023-09-19T12:55:06;24.30;36.20
81842;DHT22;71284;50.918;7.092;2023-09-19T12:57:33;24.30;37.00
81842;DHT22;71284;50.918;7.092;2023-09-19T13:00:00;24.30;36.70
81842;DHT22;71284;50.918;7.092;2023-09-19T13:02:26;24.50;35.40
81842;DHT22;71284;50.918;7.092;2023-09-19T13:04:53;24.30;36.20
81842;DHT22;71284;50.918;7.092;2023-09-19T13:10:03;24.80;35.60
81842;DHT22;71284;50.918;7.092;2023-09-19T13:12:34;25.50;34.90
81842;DHT22;71284;50.918;7.092;2023-09-19T13:15:07;25.30;34.80
81842;DHT22;71284;50.918;7.092;2023-09-19T13:17:42;25.70;34.80
81842;DHT22;71284;50.918;7.092;2023-09-19T13:20:20;25.80;34.50
81842;DHT22;71284;50.918;7.092;2023-09-19T13:22:40;25.40;34.50
81842;DHT22;71284;50.918;7.092;2023-09-19T13:25:09;24.90;37.20
81842;DHT22;71284;50.918;7.092;2023-09-19T13:27:35;25.00;36.80
81842;DHT22;71284;50.918;7.092;2023-09-19T13:30:02;25.20;36.40
81842;DHT22;71284;50.918;7.092;2023-09-19T13:32:28;25.10;37.70
81842;DHT22;71284;50.918;7.092;2023-09-19T13:34:55;25.00;36.20
81842;DHT22;71284;50.918;7.092;2023-09-19T13:37:21;25.50;35.70
81842;DHT22;71284;50.918;7.092;2023-09-19T13:39:48;25.40;35.40
81842;DHT22;71284;50.918;7.092;2023-09-19T13:42:15;25.90;35.30
81842;DHT22;71284;50.918;7.092;2023-09-19T13:44:41;27.00;34.30
81842;DHT22;71284;50.918;7.092;2023-09-19T13:47:08;27.70;32.90
81842;DHT22;71284;50.918;7.092;2023-09-19T13:49:35;28.20;31.50
81842;DHT22;71284;50.918;7.092;2023-09-19T13:52:01;28.20;31.00
81842;DHT22;71284;50.918;7.092;2023-09-19T13:54:28;27.40;32.20
81842;DHT22;71284;50.918;7.092;2023-09-19T13:56:54;27.40;34.20
81842;DHT22;71284;50.918;7.092;2023-09-19T13:59:21;27.10;32.90
81842;DHT22;71284;50.918;7.092;2023-09-19T14:01:47;26.60;34.00
81842;DHT22;71284;50.918;7.092;2023-09-19T14:04:14;26.40;34.30
81842;DHT22;71284;50.918;7.092;2023-09-19T14:06:42;26.10;34.00
81842;DHT22;71284;50.918;7.092;2023-09-19T14:09:08;25.40;35.30
81842;DHT22;71284;50.918;7.092;2023-09-19T14:11:34;25.30;37.40
81842;DHT22;71284;50.918;7.092;2023-09-19T14:14:01;25.10;37.20
81842;DHT22;71284;50.918;7.092;2023-09-19T14:16:28;25.10;36.20
81842;DHT22;71284;50.918;7.092;2023-09-19T14:18:54;24.80;38.00
81842;DHT22;71284;50.918;7.092;2023-09-19T14:21:21;24.30;37.80
81842;DHT22;71284;50.918;7.092;2023-09-19T14:23:48;24.40;38.70
81842;DHT22;71284;50.918;7.092;2023-09-19T14:26:15;24.30;36.60
81842;DHT22;71284;50.918;7.092;2023-09-19T14:28:42;23.80;37.50
81842;DHT22;71284;50.918;7.092;2023-09-19T14:31:09;23.80;37.80
81842;DHT22;71284;50.918;7.092;2023-09-19T14:33:36;23.70;38.40
81842;DHT22;71284;50.918;7.092;2023-09-19T14:36:03;23.80;39.10
81842;DHT22;71284;50.918;7.092;2023-09-19T14:38:29;23.80;38.60
81842;DHT22;71284;50.918;7.092;2023-09-19T14:41:02;23.90;37.70
81842;DHT22;71284;50.918;7.092;2023-09-19T14:43:29;23.90;38.30
81842;DHT22;71284;50.918;7.092;2023-09-19T14:45:56;23.90;40.60
81842;DHT22;71284;50.918;7.092;2023-09-19T14:48:23;24.00;40.00
81842;DHT22;71284;50.918;7.092;2023-09-19T14:50:51;23.90;38.60
81842;DHT22;71284;50.918;7.092;2023-09-19T14:53:17;23.60;38.80
81842;DHT22;71284;50.918;7.092;2023-09-19T14:55:44;23.20;39.10
81842;DHT22;71284;50.918;7.092;2023-09-19T14:58:10;23.20;39.30
81842;DHT22;71284;50.918;7.092;2023-09-19T15:00:37;23.30;41.00
81842;DHT22;71284;50.918;7.092;2023-09-19T15:03:03;23.40;38.90
81842;DHT22;71284;50.918;7.092;2023-09-19T15:05:30;23.30;39.10
81842;DHT22;71284;50.918;7.092;2023-09-19T15:07:57;23.30;39.30
81842;DHT22;71284;50.918;7.092;2023-09-19T15:10:23;23.50;39.80
81842;DHT22;71284;50.918;7.092;2023-09-19T15:12:50;23.90;38.50
81842;DHT22;71284;50.918;7.092;2023-09-19T15:15:16;24.00;38.00
81842;DHT22;71284;50.918;7.092;2023-09-19T15:17:43;23.70;38.30
81842;DHT22;71284;50.918;7.092;2023-09-19T15:20:10;23.70;38.00
81842;DHT22;71284;50.918;7.092;2023-09-19T15:22:37;23.60;38.50
81842;DHT22;71284;50.918;7.092;2023-09-19T15:25:03;23.40;38.50
81842;DHT22;71284;50.918;7.092;2023-09-19T15:27:31;23.30;38.40
81842;DHT22;71284;50.918;7.092;2023-09-19T15:29:57;23.20;38.90
81842;DHT22;71284;50.918;7.092;2023-09-19T15:32:24;23.20;39.00
81842;DHT22;71284;50.918;7.092;2023-09-19T15:34:51;23.30;38.70
81842;DHT22;71284;50.918;7.092;2023-09-19T15:37:18;23.20;39.60
81842;DHT22;71284;50.918;7.092;2023-09-19T15:39:44;23.10;39.20
81842;DHT22;71284;50.918;7.092;2023-09-19T15:42:11;23.00;38.60
81842;DHT22;71284;50.918;7.092;2023-09-19T15:44:37;22.90;38.90
81842;DHT22;71284;50.918;7.092;2023-09-19T15:47:04;22.90;38.90
81842;DHT22;71284;50.918;7.092;2023-09-19T15:49:31;23.00;38.90